createdAt,value
2023-05-13T00:00:18.133Z,5.32
2023-05-13T00:02:44.967Z,6.05
2023-05-13T00:05:11.590Z,5.40
2023-05-13T00:07:38.254Z,8.73
2023-05-13T00:10:05.139Z,5.03
2023-05-13T00:12:31.774Z,4.70
2023-05-13T00:14:58.349Z,6.75
2023-05-13T00:17:25.038Z,4.47
2023-05-13T00:19:51.660Z,4.47
2023-05-13T00:22:18.819Z,4.10
2023-05-13T00:24:45.361Z,5.78
2023-05-13T00:27:12.344Z,6.22
2023-05-13T00:29:38.968Z,5.65
2023-05-13T00:32:06.302Z,4.57
2023-05-13T00:34:33.078Z,4.30
2023-05-13T00:37:01.022Z,6.40
2023-05-13T00:39:29.603Z,6.22
2023-05-13T00:41:56.422Z,4.95
2023-05-13T00:44:23.022Z,5.47
2023-05-13T00:46:49.996Z,5.07
2023-05-13T00:49:16.558Z,4.47
2023-05-13T00:51:43.277Z,8.38
2023-05-13T00:54:11.339Z,7.13
2023-05-13T00:56:39.254Z,6.05
2023-05-13T00:59:05.881Z,5.97
2023-05-13T01:01:50.780Z,7.80
2023-05-13T01:04:32.660Z,4.85
2023-05-13T01:07:19.670Z,4.90
2023-05-13T01:10:09.246Z,5.72
2023-05-13T01:12:39.971Z,6.05
2023-05-13T01:15:27.010Z,6.73
2023-05-13T01:18:19.284Z,4.75
2023-05-13T01:20:46.222Z,6.78
2023-05-13T01:23:13.280Z,5.60
2023-05-13T01:25:40.704Z,7.28
2023-05-13T01:28:08.852Z,6.95
2023-05-13T01:30:37.381Z,6.43
2023-05-13T01:33:05.413Z,7.13
2023-05-13T01:35:32.750Z,5.78
2023-05-13T01:38:01.158Z,8.45
2023-05-13T01:40:32.881Z,6.55
2023-05-13T01:43:04.388Z,6.57
2023-05-13T01:45:32.343Z,4.95
2023-05-13T01:48:00.097Z,6.03
2023-05-13T01:50:33.716Z,5.57
2023-05-13T01:53:00.539Z,6.15
2023-05-13T01:55:27.261Z,10.23
2023-05-13T01:57:55.302Z,6.85
2023-05-13T02:00:22.360Z,6.78
2023-05-13T02:02:49.845Z,7.32
2023-05-13T02:05:17.117Z,6.57
2023-05-13T02:07:44.928Z,7.97
2023-05-13T02:10:11.758Z,6.57
2023-05-13T02:12:38.438Z,8.02
2023-05-13T02:15:05.815Z,7.82
2023-05-13T02:17:32.415Z,9.65
2023-05-13T02:19:59.038Z,7.32
2023-05-13T02:22:25.691Z,10.90
2023-05-13T02:24:52.291Z,12.50
2023-05-13T02:27:19.248Z,7.80
2023-05-13T02:29:46.128Z,8.93
2023-05-13T02:32:13.205Z,9.77
2023-05-13T02:34:39.818Z,8.52
2023-05-13T02:37:06.380Z,9.55
2023-05-13T02:39:38.993Z,10.07
2023-05-13T02:42:06.086Z,9.80
2023-05-13T02:44:32.929Z,9.93
2023-05-13T02:47:00.936Z,9.00
2023-05-13T02:49:27.692Z,11.40
2023-05-13T02:51:54.751Z,10.23
2023-05-13T02:54:28.550Z,9.90
2023-05-13T02:56:55.140Z,11.40
2023-05-13T02:59:21.689Z,9.57
2023-05-13T03:01:48.659Z,12.02
2023-05-13T03:04:15.213Z,10.02
2023-05-13T03:06:41.772Z,12.75
2023-05-13T03:09:08.441Z,14.40
2023-05-13T03:11:35.126Z,14.35
2023-05-13T03:14:01.703Z,11.10
2023-05-13T03:16:28.357Z,12.32
2023-05-13T03:18:54.988Z,10.25
2023-05-13T03:21:21.854Z,10.57
2023-05-13T03:23:48.636Z,11.23
2023-05-13T03:26:16.756Z,11.65
2023-05-13T03:28:44.508Z,12.15
2023-05-13T03:31:11.134Z,13.15
2023-05-13T03:33:39.347Z,11.77
2023-05-13T03:36:09.707Z,13.38
2023-05-13T03:38:36.775Z,11.57
2023-05-13T03:41:03.827Z,12.18
2023-05-13T03:43:30.388Z,14.27
2023-05-13T03:46:01.193Z,14.67
2023-05-13T03:48:27.987Z,10.75
2023-05-13T03:50:57.387Z,13.95
2023-05-13T03:53:24.453Z,15.93
2023-05-13T03:55:52.257Z,12.73
2023-05-13T03:58:21.699Z,12.32
2023-05-13T04:00:48.879Z,12.02
2023-05-13T04:03:17.236Z,15.25
2023-05-13T04:05:46.209Z,15.70
2023-05-13T04:08:13.190Z,11.32
2023-05-13T04:10:40.215Z,15.02
2023-05-13T04:13:07.669Z,16.30
2023-05-13T04:15:34.277Z,16.25
2023-05-13T04:18:00.992Z,17.05
2023-05-13T04:20:29.068Z,14.05
2023-05-13T04:22:56.213Z,17.27
2023-05-13T04:25:22.878Z,14.98
2023-05-13T04:27:50.028Z,15.63
2023-05-13T04:30:31.222Z,15.57
2023-05-13T04:32:57.899Z,14.30
2023-05-13T04:35:25.192Z,14.68
2023-05-13T04:37:56.122Z,15.30
2023-05-13T04:40:23.259Z,15.00
2023-05-13T04:42:55.115Z,14.73
2023-05-13T04:45:31.855Z,16.83
2023-05-13T04:47:59.332Z,18.95
2023-05-13T04:50:26.244Z,14.60
2023-05-13T04:52:54.885Z,16.70
2023-05-13T04:55:22.939Z,16.67
2023-05-13T04:57:50.069Z,15.57
2023-05-13T05:00:17.726Z,13.50
2023-05-13T05:02:46.568Z,15.68
2023-05-13T05:05:13.168Z,16.30
2023-05-13T05:07:40.600Z,16.08
2023-05-13T05:10:08.849Z,15.85
2023-05-13T05:12:38.327Z,17.38
2023-05-13T05:15:06.230Z,14.35
2023-05-13T05:17:33.925Z,13.60
2023-05-13T05:20:02.431Z,16.23
2023-05-13T05:22:29.292Z,13.52
2023-05-13T05:24:56.659Z,15.93
2023-05-13T05:27:24.802Z,16.70
2023-05-13T05:29:51.511Z,14.25
2023-05-13T05:32:19.594Z,14.10
2023-05-13T05:34:46.243Z,17.17
2023-05-13T05:37:13.026Z,13.32
2023-05-13T05:39:41.202Z,14.32
2023-05-13T05:42:08.585Z,16.30
2023-05-13T05:44:36.174Z,16.00
2023-05-13T05:47:03.110Z,15.38
2023-05-13T05:49:29.782Z,14.82
2023-05-13T05:51:56.763Z,16.30
2023-05-13T05:54:23.833Z,15.00
2023-05-13T05:56:50.400Z,12.13
2023-05-13T05:59:16.944Z,16.85
2023-05-13T06:01:44.486Z,14.43
2023-05-13T06:04:11.216Z,16.60
2023-05-13T06:06:39.488Z,11.80
2023-05-13T06:09:06.627Z,13.48
2023-05-13T06:11:33.634Z,13.48
2023-05-13T06:14:00.538Z,12.07
2023-05-13T06:16:27.097Z,14.32
2023-05-13T06:18:54.080Z,12.90
2023-05-13T06:21:20.902Z,13.30
2023-05-13T06:23:49.018Z,15.07
2023-05-13T06:26:15.640Z,13.77
2023-05-13T06:28:42.242Z,13.40
2023-05-13T06:31:09.175Z,12.60
2023-05-13T06:33:37.308Z,12.68
2023-05-13T06:36:04.410Z,13.90
2023-05-13T06:38:30.996Z,12.73
2023-05-13T06:40:59.135Z,11.70
2023-05-13T06:43:37.306Z,13.00
2023-05-13T06:46:21.288Z,12.73
2023-05-13T06:48:47.952Z,13.00
2023-05-13T06:51:14.669Z,12.32
2023-05-13T06:53:41.214Z,14.75
2023-05-13T06:56:07.814Z,12.68
2023-05-13T06:58:34.482Z,13.10
2023-05-13T07:01:01.618Z,13.32
2023-05-13T07:03:28.459Z,12.60
2023-05-13T07:05:55.596Z,14.25
2023-05-13T07:08:22.521Z,11.43
2023-05-13T07:10:49.130Z,9.73
2023-05-13T07:13:16.032Z,12.25
2023-05-13T07:15:42.660Z,11.52
2023-05-13T07:18:09.433Z,12.68
2023-05-13T07:20:37.130Z,11.98
2023-05-13T07:23:03.688Z,13.90
2023-05-13T07:25:30.424Z,12.80
2023-05-13T07:27:57.043Z,12.25
2023-05-13T07:30:23.855Z,12.18
2023-05-13T07:32:52.007Z,9.07
2023-05-13T07:35:20.738Z,8.10
2023-05-13T07:37:48.028Z,12.85
2023-05-13T07:40:14.568Z,9.25
2023-05-13T07:42:41.510Z,11.15
2023-05-13T07:45:08.616Z,10.77
2023-05-13T07:47:35.597Z,8.32
2023-05-13T07:50:02.302Z,12.68
2023-05-13T07:52:28.931Z,12.20
2023-05-13T07:54:55.655Z,11.57
2023-05-13T07:57:22.280Z,12.15
2023-05-13T07:59:48.944Z,13.95
2023-05-13T08:02:15.741Z,12.95
2023-05-13T08:04:42.320Z,12.00
2023-05-13T08:07:11.291Z,11.25
2023-05-13T08:09:38.194Z,13.05
2023-05-13T08:12:05.002Z,12.02
2023-05-13T08:14:31.561Z,12.23
2023-05-13T08:16:58.095Z,10.63
2023-05-13T08:19:24.694Z,10.80
2023-05-13T08:21:51.470Z,11.85
2023-05-13T08:24:18.013Z,12.23
2023-05-13T08:26:44.680Z,9.43
2023-05-13T08:29:14.022Z,11.02
2023-05-13T08:31:40.897Z,9.90
2023-05-13T08:34:07.611Z,8.93
2023-05-13T08:36:34.288Z,8.85
2023-05-13T08:39:01.534Z,9.10
2023-05-13T08:41:29.746Z,11.07
2023-05-13T08:43:58.429Z,13.02
2023-05-13T08:46:27.802Z,10.70
2023-05-13T08:48:55.951Z,10.95
2023-05-13T08:51:22.563Z,13.70
2023-05-13T08:53:51.656Z,9.63
2023-05-13T08:56:18.186Z,10.43
2023-05-13T08:58:44.775Z,10.73
2023-05-13T09:01:12.093Z,8.63
2023-05-13T09:03:56.711Z,7.15
2023-05-13T09:06:23.372Z,9.15
2023-05-13T09:08:50.106Z,9.30
2023-05-13T09:11:17.408Z,11.75
2023-05-13T09:13:47.227Z,12.63
2023-05-13T09:16:14.322Z,11.05
2023-05-13T09:18:42.107Z,6.97
2023-05-13T09:21:29.165Z,10.10
2023-05-13T09:24:21.362Z,8.68
2023-05-13T09:26:49.934Z,11.63
2023-05-13T09:29:29.431Z,12.88
2023-05-13T09:32:01.321Z,8.63
2023-05-13T09:34:29.322Z,9.77
2023-05-13T09:37:04.428Z,9.15
2023-05-13T09:39:34.335Z,10.07
2023-05-13T09:42:04.493Z,8.10
2023-05-13T09:44:32.606Z,9.73
2023-05-13T09:47:02.299Z,13.43
2023-05-13T09:49:29.184Z,12.32
2023-05-13T09:51:55.870Z,10.98
2023-05-13T09:54:22.487Z,11.70
2023-05-13T09:56:49.098Z,12.32
2023-05-13T09:59:16.425Z,10.98
2023-05-13T10:01:43.831Z,11.52
2023-05-13T10:04:11.556Z,11.73
2023-05-13T10:06:39.364Z,10.57
2023-05-13T10:09:09.968Z,10.85
2023-05-13T10:11:37.168Z,12.05
2023-05-13T10:14:06.200Z,11.18
2023-05-13T10:16:33.109Z,10.55
2023-05-13T10:19:00.625Z,18.92
2023-05-13T10:21:27.923Z,12.30
2023-05-13T10:23:55.971Z,13.07
2023-05-13T10:26:23.871Z,11.63
2023-05-13T10:28:50.703Z,11.50
2023-05-13T10:31:17.692Z,11.57
2023-05-13T10:33:45.561Z,12.77
2023-05-13T10:36:22.136Z,10.35
2023-05-13T10:39:00.796Z,11.60
2023-05-13T10:41:27.596Z,10.20
2023-05-13T10:43:58.438Z,9.95
2023-05-13T10:46:25.578Z,7.38
2023-05-13T10:48:59.992Z,7.97
2023-05-13T10:51:27.006Z,8.05
2023-05-13T10:53:56.633Z,7.72
2023-05-13T10:56:24.802Z,6.70
2023-05-13T10:59:04.385Z,6.50
2023-05-13T11:01:34.938Z,6.07
2023-05-13T11:04:04.549Z,7.10
2023-05-13T11:06:36.831Z,5.63
2023-05-13T11:09:08.341Z,6.00
2023-05-13T11:11:36.954Z,5.18
2023-05-13T11:14:03.798Z,5.38
2023-05-13T11:16:30.511Z,5.88
2023-05-13T11:18:57.407Z,5.70
2023-05-13T11:21:36.019Z,7.82
2023-05-13T11:24:05.503Z,7.28
2023-05-13T11:26:50.075Z,5.72
2023-05-13T11:29:50.763Z,6.28
2023-05-13T11:33:08.318Z,8.15
2023-05-13T11:35:34.963Z,6.15
2023-05-13T11:38:03.345Z,6.80
2023-05-13T11:40:34.536Z,7.55
2023-05-13T11:45:31.546Z,9.90
2023-05-13T11:47:59.134Z,9.55
2023-05-13T11:50:30.832Z,7.68
2023-05-13T11:53:02.360Z,7.28
2023-05-13T11:55:35.168Z,11.20
2023-05-13T11:58:03.275Z,7.00
2023-05-13T12:00:31.904Z,6.15
2023-05-13T12:03:00.066Z,6.50
2023-05-13T12:05:27.497Z,6.35
2023-05-13T12:07:58.499Z,6.57
2023-05-13T12:10:26.623Z,6.03
2023-05-13T12:12:53.576Z,6.55
2023-05-13T12:15:22.224Z,5.55
2023-05-13T12:17:49.794Z,5.32
2023-05-13T12:20:20.458Z,5.18
2023-05-13T12:22:47.264Z,4.97
2023-05-13T12:25:32.774Z,5.07
2023-05-13T12:28:00.325Z,4.47
2023-05-13T12:30:34.076Z,6.72
2023-05-13T12:33:00.973Z,5.30
2023-05-13T12:35:27.688Z,5.22
2023-05-13T12:38:02.204Z,5.78
2023-05-13T12:40:28.781Z,7.18
2023-05-13T12:43:02.332Z,5.53
2023-05-13T12:45:32.857Z,6.10
2023-05-13T12:48:00.684Z,5.90
2023-05-13T12:50:27.534Z,6.05
2023-05-13T12:52:54.821Z,5.13
2023-05-13T12:55:21.796Z,4.30
2023-05-13T12:58:01.108Z,4.22
2023-05-13T13:00:28.211Z,6.88
2023-05-13T13:02:55.046Z,3.55
2023-05-13T13:05:23.063Z,3.95
2023-05-13T13:07:51.034Z,5.07
2023-05-13T13:10:17.960Z,3.53
2023-05-13T13:12:44.652Z,5.38
2023-05-13T13:15:12.224Z,3.72
2023-05-13T13:17:38.936Z,4.90
2023-05-13T13:20:07.344Z,3.30
2023-05-13T13:22:36.910Z,3.35
2023-05-13T13:25:07.585Z,3.70
2023-05-13T13:27:34.892Z,4.28
2023-05-13T13:30:01.902Z,4.18
2023-05-13T13:32:28.839Z,5.03
2023-05-13T13:34:55.868Z,4.75
2023-05-13T13:37:22.424Z,4.53
2023-05-13T13:39:49.193Z,6.30
2023-05-13T13:42:15.894Z,4.80
2023-05-13T13:44:42.669Z,4.25
2023-05-13T13:47:09.571Z,4.50
2023-05-13T13:49:36.388Z,4.55
2023-05-13T13:52:03.027Z,3.72
2023-05-13T13:54:29.655Z,4.18
2023-05-13T13:56:56.237Z,3.38
2023-05-13T13:59:22.872Z,6.55
2023-05-13T14:01:49.470Z,3.17
2023-05-13T14:04:20.212Z,4.57
2023-05-13T14:06:47.067Z,3.83
2023-05-13T14:09:13.663Z,2.70
2023-05-13T14:11:40.336Z,3.33
2023-05-13T14:14:07.054Z,3.35
2023-05-13T14:16:33.827Z,2.60
2023-05-13T14:19:00.497Z,2.60
2023-05-13T14:21:27.168Z,1.85
2023-05-13T14:23:53.818Z,8.38
2023-05-13T14:26:21.136Z,2.33
2023-05-13T14:28:47.786Z,2.78
2023-05-13T14:31:14.436Z,4.55
2023-05-13T14:33:41.130Z,2.42
2023-05-13T14:36:09.533Z,2.38
2023-05-13T14:38:36.251Z,2.42
2023-05-13T14:41:02.835Z,3.05
2023-05-13T14:43:29.830Z,2.58
2023-05-13T14:45:56.403Z,4.10
2023-05-13T14:48:22.994Z,4.88
2023-05-13T14:50:49.624Z,3.83
2023-05-13T14:53:16.737Z,3.03
2023-05-13T14:55:43.361Z,2.42
2023-05-13T14:58:10.379Z,2.70
2023-05-13T15:00:41.657Z,3.45
2023-05-13T15:03:08.466Z,2.33
2023-05-13T15:05:35.466Z,3.17
2023-05-13T15:08:02.144Z,1.70
2023-05-13T15:10:28.802Z,2.20
2023-05-13T15:12:55.510Z,2.55
2023-05-13T15:15:23.275Z,2.10
2023-05-13T15:17:49.918Z,3.22
2023-05-13T15:20:16.619Z,2.08
2023-05-13T15:22:43.997Z,3.47
2023-05-13T15:25:10.946Z,1.73
2023-05-13T15:27:37.524Z,1.40
2023-05-13T15:30:04.322Z,2.75
2023-05-13T15:32:31.071Z,1.83
2023-05-13T15:34:57.815Z,1.42
2023-05-13T15:37:24.505Z,1.50
2023-05-13T15:39:51.087Z,2.45
2023-05-13T15:42:17.603Z,2.22
2023-05-13T15:44:45.760Z,1.40
2023-05-13T15:47:12.510Z,1.38
2023-05-13T15:49:39.316Z,1.60
2023-05-13T15:52:07.163Z,2.35
2023-05-13T15:54:33.944Z,2.55
2023-05-13T15:57:00.509Z,1.83
2023-05-13T15:59:27.196Z,2.15
2023-05-13T16:01:53.830Z,2.63
2023-05-13T16:04:20.568Z,2.30
2023-05-13T16:06:50.128Z,1.42
2023-05-13T16:09:16.759Z,5.72
2023-05-13T16:11:43.593Z,1.65
2023-05-13T16:14:10.386Z,1.75
2023-05-13T16:16:37.723Z,1.88
2023-05-13T16:19:04.565Z,1.98
2023-05-13T16:21:31.849Z,1.63
2023-05-13T16:23:58.604Z,1.80
2023-05-13T16:26:26.334Z,1.23
2023-05-13T16:28:52.919Z,2.25
2023-05-13T16:31:19.615Z,1.30
2023-05-13T16:33:46.265Z,1.83
2023-05-13T16:36:12.962Z,1.27
2023-05-13T16:38:41.486Z,1.98
2023-05-13T16:41:08.768Z,1.65
2023-05-13T16:43:35.446Z,1.67
2023-05-13T16:46:02.655Z,1.70
2023-05-13T16:48:29.263Z,3.20
2023-05-13T16:50:56.324Z,1.40
2023-05-13T16:53:23.211Z,2.42
2023-05-13T16:55:50.205Z,1.23
2023-05-13T16:58:17.213Z,1.70
2023-05-13T17:00:44.292Z,1.42
2023-05-13T17:03:13.303Z,1.80
2023-05-13T17:05:40.248Z,1.42
2023-05-13T17:08:06.802Z,2.25
2023-05-13T17:10:33.374Z,1.67
2023-05-13T17:13:00.113Z,1.60
2023-05-13T17:15:26.655Z,4.45
2023-05-13T17:17:53.685Z,3.65
2023-05-13T17:20:20.528Z,2.53
2023-05-13T17:22:47.685Z,1.75
2023-05-13T17:25:14.928Z,1.27
2023-05-13T17:27:41.525Z,1.80
2023-05-13T17:30:08.719Z,1.45
2023-05-13T17:32:35.835Z,2.22
2023-05-13T17:35:04.842Z,1.48
2023-05-13T17:37:31.556Z,2.20
2023-05-13T17:40:00.709Z,1.90
2023-05-13T17:42:28.991Z,1.20
2023-05-13T17:44:55.931Z,1.90
2023-05-13T17:47:22.596Z,1.70
2023-05-13T17:49:49.517Z,1.67
2023-05-13T17:52:16.064Z,1.80
2023-05-13T17:54:42.692Z,1.73
2023-05-13T17:57:11.034Z,3.10
2023-05-13T17:59:37.702Z,2.28
2023-05-13T18:02:04.440Z,1.80
2023-05-13T18:04:31.109Z,1.98
2023-05-13T18:06:57.752Z,1.77
2023-05-13T18:09:24.365Z,1.35
2023-05-13T18:11:51.068Z,1.67
2023-05-13T18:14:17.714Z,1.42
2023-05-13T18:16:44.419Z,1.63
2023-05-13T18:19:10.991Z,1.77
2023-05-13T18:21:37.697Z,3.42
2023-05-13T18:24:04.633Z,1.08
2023-05-13T18:26:31.480Z,1.88
2023-05-13T18:28:58.050Z,1.27
2023-05-13T18:31:24.762Z,1.40
2023-05-13T18:33:51.453Z,1.40
2023-05-13T18:36:18.141Z,2.03
2023-05-13T18:38:47.735Z,1.42
2023-05-13T18:41:15.018Z,1.17
2023-05-13T18:43:41.678Z,1.45
2023-05-13T18:46:08.762Z,1.52
2023-05-13T18:48:36.436Z,1.52
2023-05-13T18:51:03.164Z,1.45
2023-05-13T18:53:29.774Z,1.15
2023-05-13T18:55:56.407Z,0.95
2023-05-13T18:58:23.032Z,0.77
2023-05-13T19:00:49.788Z,1.75
2023-05-13T19:03:16.723Z,1.33
2023-05-13T19:05:44.589Z,1.48
2023-05-13T19:08:11.209Z,1.50
2023-05-13T19:10:40.375Z,2.00
2023-05-13T19:13:07.525Z,1.63
2023-05-13T19:15:34.400Z,1.58
2023-05-13T19:18:01.458Z,1.13
2023-05-13T19:20:29.456Z,1.10
2023-05-13T19:22:56.043Z,1.45
2023-05-13T19:25:22.866Z,2.42
2023-05-13T19:27:49.684Z,1.52
2023-05-13T19:30:16.408Z,1.00
2023-05-13T19:32:43.702Z,1.75
2023-05-13T19:35:11.222Z,1.55
2023-05-13T19:37:37.782Z,1.38
2023-05-13T19:40:05.020Z,1.30
2023-05-13T19:42:32.132Z,1.23
2023-05-13T19:44:58.692Z,1.42
2023-05-13T19:47:26.888Z,1.73
2023-05-13T19:49:53.871Z,1.75
2023-05-13T19:52:20.936Z,1.23
2023-05-13T19:54:47.542Z,1.95
2023-05-13T19:57:14.110Z,1.20
2023-05-13T19:59:41.821Z,1.67
2023-05-13T20:02:09.197Z,2.50
2023-05-13T20:04:36.238Z,2.05
2023-05-13T20:07:02.898Z,2.05
2023-05-13T20:09:29.828Z,2.05
2023-05-13T20:11:57.985Z,1.95
2023-05-13T20:14:27.763Z,3.42
2023-05-13T20:16:54.651Z,2.38
2023-05-13T20:19:21.438Z,1.70
2023-05-13T20:21:48.066Z,4.07
2023-05-13T20:24:14.710Z,3.28
2023-05-13T20:26:41.297Z,1.67
2023-05-13T20:29:08.466Z,2.50
2023-05-13T20:31:35.115Z,1.65
2023-05-13T20:34:03.317Z,1.92
2023-05-13T20:36:30.044Z,1.65
2023-05-13T20:38:56.659Z,1.75
2023-05-13T20:41:23.813Z,3.85
2023-05-13T20:43:50.486Z,3.55
2023-05-13T20:46:17.484Z,3.83
2023-05-13T20:48:44.220Z,2.15
2023-05-13T20:51:11.449Z,5.03
2023-05-13T20:53:38.007Z,2.47
2023-05-13T20:56:04.893Z,3.42
2023-05-13T20:58:31.477Z,3.92
2023-05-13T21:00:58.185Z,2.25
2023-05-13T21:03:25.043Z,4.10
2023-05-13T21:05:51.632Z,1.60
2023-05-13T21:08:18.381Z,3.67
2023-05-13T21:10:44.936Z,2.28
2023-05-13T21:13:11.666Z,2.20
2023-05-13T21:15:38.633Z,2.88
2023-05-13T21:18:05.281Z,2.33
2023-05-13T21:20:32.771Z,2.35
2023-05-13T21:23:00.996Z,3.65
2023-05-13T21:25:27.699Z,3.80
2023-05-13T21:27:54.339Z,3.47
2023-05-13T21:30:21.310Z,3.85
2023-05-13T21:32:48.137Z,4.35
2023-05-13T21:35:15.131Z,3.42
2023-05-13T21:37:41.737Z,2.67
2023-05-13T21:40:08.869Z,3.40
2023-05-13T21:42:35.615Z,3.83
2023-05-13T21:45:02.809Z,4.10
2023-05-13T21:47:29.732Z,3.50
2023-05-13T21:49:56.409Z,1.52
2023-05-13T21:52:23.130Z,1.83
2023-05-13T21:54:49.757Z,3.13
2023-05-13T21:57:16.697Z,1.27
2023-05-13T21:59:43.651Z,1.45
2023-05-13T22:02:10.278Z,1.10
2023-05-13T22:04:36.945Z,2.17
2023-05-13T22:07:03.613Z,1.40
2023-05-13T22:09:31.750Z,0.68
2023-05-13T22:11:58.525Z,2.25
2023-05-13T22:14:25.244Z,2.30
2023-05-13T22:17:01.218Z,1.48
2023-05-13T22:19:35.059Z,0.70
2023-05-13T22:22:01.712Z,1.25
2023-05-13T22:24:28.270Z,1.63
2023-05-13T22:26:54.833Z,1.05
2023-05-13T22:29:21.530Z,5.80
2023-05-13T22:31:48.161Z,3.40
2023-05-13T22:34:14.932Z,1.02
2023-05-13T22:36:43.829Z,1.27
2023-05-13T22:39:12.264Z,2.60
2023-05-13T22:41:38.842Z,4.53
2023-05-13T22:44:05.678Z,2.58
2023-05-13T22:46:32.457Z,2.70
2023-05-13T22:48:59.135Z,2.63
2023-05-13T22:51:25.712Z,3.60
2023-05-13T22:53:52.367Z,2.28
2023-05-13T22:56:18.891Z,2.88
2023-05-13T22:58:46.257Z,2.08
2023-05-13T23:01:13.006Z,3.05
2023-05-13T23:03:39.660Z,2.47
2023-05-13T23:06:06.374Z,2.70
2023-05-13T23:08:33.217Z,2.70
2023-05-13T23:10:59.759Z,2.85
2023-05-13T23:13:26.471Z,2.85
2023-05-13T23:15:53.068Z,2.72
2023-05-13T23:18:19.855Z,3.15
2023-05-13T23:20:51.257Z,3.90
2023-05-13T23:23:18.024Z,2.10
2023-05-13T23:25:45.756Z,4.60
2023-05-13T23:28:12.812Z,2.33
2023-05-13T23:30:39.924Z,3.53
2023-05-13T23:33:06.692Z,2.83
2023-05-13T23:35:34.116Z,5.13
2023-05-13T23:38:01.628Z,3.50
2023-05-13T23:40:28.379Z,4.72
2023-05-13T23:42:55.027Z,3.20
2023-05-13T23:45:21.648Z,5.05
2023-05-13T23:47:48.239Z,4.32
2023-05-13T23:50:14.846Z,4.88
2023-05-13T23:52:41.550Z,5.28
2023-05-13T23:55:08.366Z,4.95
2023-05-13T23:57:35.004Z,5.72
